Duckwater, Nevada Weather observations

Data are for 10 minute period ending at time listed.
 Day   Time   Solar   Ave.   Ave.  Ave.  Vector  Max.   Baro.   Total    
  of    of     Rad.   Air    Rel.  Wind   Wind   Wind  Press.  Precip.   
Year   Day            Temp.  Hum.  Speed  Dir.   Gust                    
2015   (PST)   w/m2    F      %     mph   deg.    mph    mb.     in.    
-----------------------------------------------------------------------
 145    0:00      0   46.8    71    2.0   354     3.2   832.0   0.00  
 145    0:10      0   45.2    72    1.0   140     3.1   832.0   0.00  
 145    0:20      0   45.0    75    0.2   134     1.2   831.9   0.00  
 145    0:30      0   44.2    75    1.2   311     5.2   832.0   0.00  
 145    0:40      0   44.4    76    2.0    14     5.8   832.0   0.00  
 145    0:50      0   44.1    76    1.6   342     5.0   832.0   0.00  
 145    1:00      0   44.4    75    1.6   359     6.7   832.0   0.00  
 145    1:10      0   46.7    70    3.1     4     4.7   832.0   0.00  
 145    1:20      0   45.0    72    1.9    28     5.4   832.0   0.00  
 145    1:30      0   44.4    75    4.0   331     5.3   832.1   0.00  
 145    1:40      0   43.4    77    1.7   286     3.9   832.1   0.00  
 145    1:50      0   42.2    79    3.1   292     4.4   832.1   0.00  
 145    2:00      0   41.4    80    0.9   269     2.8   832.1   0.00  
 145    2:10      0   40.8    82    3.4   328     4.9   832.2   0.00  
 145    2:20      0   41.7    81    1.4    31     3.0   832.3   0.00  
 145    2:30      0   42.1    80    1.6     3     3.4   832.3   0.00  
 145    2:40      0   42.3    80    1.0    40     3.3   832.3   0.00  
 145    2:50      0   42.5    80    0.9    28     2.0   832.3   0.00  
 145    3:00      0   42.8    79    2.4   359     5.0   832.3   0.00  
 145    3:10      0   42.5    79    2.9   347     4.7   832.2   0.00  
 145    3:20      0   42.1    79    4.6     2     6.1   832.3   0.00  
 145    3:30      0   41.4    80    4.7   359     6.5   832.2   0.00  
 145    3:40      0   41.3    80    3.0   359     7.2   832.2   0.00  
 145    3:50      0   40.6    81    2.3   327     3.4   832.2   0.00  
 145    4:00      0   40.0    82    2.3   316     3.6   832.2   0.00  
 145    4:10      0   39.4    83    1.4   309     2.8   832.2   0.00  
 145    4:20      3   39.0    85    2.0   318     3.7   832.2   0.00  
 145    4:30      5   39.3    84    4.3   325     5.8   832.1   0.00  
 145    4:40      8   39.7    83    3.9   306     7.1   832.3   0.00  
 145    4:50     10   39.1    84    4.1   310     5.7   832.4   0.00  
 145    5:00     53   39.9    84    2.8   343     5.0   832.4   0.00  
 145    5:10     87   41.6    79    3.0   354     4.7   832.4   0.00  
 145    5:20    120   42.3    78    4.4   311     8.0   832.5   0.00  
 145    5:30    148   43.2    77    4.0   341     5.6   832.6   0.00  
 145    5:40    178   44.5    75    3.1   325     4.8   832.6   0.00  
 145    5:50    210   46.1    72    2.6   325     4.3   832.6   0.00  
 145    6:00    243   47.3    70    3.5   341     5.8   832.6   0.00  
 145    6:10    276   48.8    68    3.3   336     4.7   832.7   0.00  
 145    6:20    310   50.8    64    3.0   344     5.4   832.7   0.00  
 145    6:30    341   51.8    62    3.8   346     5.3   832.8   0.00  
 145    6:40    377   54.0    57    2.1    17     3.9   832.9   0.00  
 145    6:50    411   56.0    53    2.1     1     3.7   833.0   0.00  
 145    7:00    444   57.6    49    0.9   326     2.9   832.9   0.00  
 145    7:10    478   60.0    45    1.0   112     2.9   832.9   0.00  
 145    7:20    511   62.7    41    0.8   145     3.5   833.0   0.00  
 145    7:30    544   62.4    42    3.5   149     7.0   833.0   0.00  
 145    7:40    576   62.0    43    2.7   138     7.6   833.0   0.00  
 145    7:50    607   62.4    42    3.7   146     7.0   832.9   0.00  
 145    8:00    637   61.5    43    4.0   126     7.3   832.9   0.00  
 145    8:10    667   62.9    41    3.3   168     7.8   832.9   0.00  
 145    8:20    697   63.0    40    3.7   194     7.4   832.9   0.00  
 145    8:30    727   61.9    42    4.8   208     8.8   832.9   0.00  
 145    8:40    753   61.2    44    5.5   208     9.0   832.9   0.00  
 145    8:50    777   64.3    38    3.1   160     7.1   832.8   0.00  
 145    9:00    800   65.4    37    3.2   159     8.1   832.7   0.00  

Return to Duckwater graphs page.


Western Regional Climate Center,wrcc@dri.edu